Time;durP1;ratioP1;P1;durP2;ratioP2;P2;SDS_P1;SDS_P2;PMS_P1;PMS_P2;Temp;Humidity;BMP_temperature;BMP_pressure;BME280_temperature;BME280_humidity;BME280_pressure;Samples;Min_cycle;Max_cycle;Signal;HPM_P1;HPM_P2
2022/01/23 00:02:29;;;;;;;14.80;7.47;;;;;;;-2.63;100.00;99744.16;5016158;28;20171;-83
2022/01/23 00:04:55;;;;;;;12.90;6.30;;;;;;;-5.04;100.00;99339.56;5015967;28;20169;-83
2022/01/23 00:07:22;;;;;;;15.63;6.63;;;;;;;-5.38;100.00;99327.84;5015463;28;20193;-83
2022/01/23 00:09:47;;;;;;;12.73;5.60;;;;;;;-2.54;100.00;99754.97;5016085;28;20167;-83
2022/01/23 00:12:18;;;;;;;12.23;6.40;;;;;;;-2.66;100.00;99768.63;5018403;28;20245;-84
2022/01/23 00:17:33;;;;;;;9.40;4.80;;;;;;;-2.68;100.00;99764.22;5015855;28;20673;-83
2022/01/23 00:20:01;;;;;;;15.27;7.05;;;;;;;-2.66;100.00;99767.72;5015511;28;20193;-83
2022/01/23 00:30:53;;;;;;;15.45;7.25;;;;;;;-2.73;100.00;99790.16;4974239;28;20248;-82
2022/01/23 00:33:20;;;;;;;8.43;4.53;;;;;;;-4.38;100.00;99539.03;4974115;28;20172;-84
2022/01/23 00:35:47;;;;;;;13.98;6.95;;;;;;;-2.91;100.00;99794.09;4973554;28;20223;-83
2022/01/23 00:38:13;;;;;;;12.60;6.07;;;;;;;-2.93;100.00;99793.09;4994362;28;20554;-83
2022/01/23 00:40:40;;;;;;;13.82;6.53;;;;;;;-3.60;100.00;99714.44;4993962;28;20225;-82
2022/01/23 00:43:14;;;;;;;6.72;3.55;;;;;;;-3.65;100.00;99720.50;4992811;28;20190;-83
2022/01/23 00:45:54;;;;;;;15.55;6.75;;;;;;;-3.08;100.00;99803.94;4992475;28;20208;-83
2022/01/23 00:48:25;;;;;;;9.27;4.13;;;;;;;-3.73;98.10;99664.44;4992852;28;20210;-82
2022/01/23 00:50:51;;;;;;;8.95;4.28;;;;;;;-3.55;95.25;99676.94;4992922;28;20167;-82
2022/01/23 00:53:16;;;;;;;9.47;4.83;;;;;;;-3.50;94.20;99674.19;4994313;28;20172;-82
2022/01/23 00:55:44;;;;;;;12.77;6.03;;;;;;;-2.67;93.18;99803.16;4993006;28;20227;-83
2022/01/23 00:58:11;;;;;;;12.70;5.35;;;;;;;-3.13;91.57;99741.53;4992802;28;20177;-83
2022/01/23 01:00:37;;;;;;;13.30;5.43;;;;;;;-4.70;90.17;99455.84;4981534;28;20175;-83
2022/01/23 01:03:03;;;;;;;10.60;5.07;;;;;;;-3.13;89.22;99743.16;4995309;28;20191;-84
2022/01/23 01:05:29;;;;;;;8.75;4.13;;;;;;;-3.58;89.14;99667.59;4995655;28;20242;-82
2022/01/23 01:07:59;;;;;;;11.05;5.03;;;;;;;-2.95;88.59;99791.19;5011480;28;20722;-82
2022/01/23 01:10:34;;;;;;;7.75;4.20;;;;;;;-3.28;87.74;99742.47;4997233;28;20668;-83
2022/01/23 01:13:00;;;;;;;8.82;4.30;;;;;;;-3.98;88.02;99612.34;5013259;28;20261;-83
2022/01/23 01:15:34;;;;;;;9.65;4.53;;;;;;;-2.83;87.98;99814.72;5014455;28;20178;-83
2022/01/23 01:34:04;;;;;;;14.67;6.50;;;;;;;-2.95;88.18;99818.41;5014143;28;20170;-82
2022/01/23 01:39:03;;;;;;;11.65;5.35;;;;;;;-3.64;87.71;99681.81;5014462;28;20233;-83
2022/01/23 01:41:28;;;;;;;13.13;6.13;;;;;;;-3.28;88.29;99772.19;5013936;28;20584;-82
2022/01/23 01:43:56;;;;;;;12.77;6.07;;;;;;;-3.05;88.28;99829.00;4996380;28;20177;-82
2022/01/23 01:46:22;;;;;;;11.98;5.82;;;;;;;-4.66;87.91;99540.97;5012349;28;20256;-82
2022/01/23 01:48:47;;;;;;;17.00;6.90;;;;;;;-4.44;87.97;99573.00;5013780;28;20163;-82
2022/01/23 01:51:16;;;;;;;11.13;4.23;;;;;;;-3.04;86.97;99840.63;5013066;28;20250;-82
2022/01/23 01:53:50;;;;;;;7.47;3.78;;;;;;;-4.77;86.40;99537.38;5013772;28;20246;-82
2022/01/23 01:56:16;;;;;;;9.60;4.13;;;;;;;-3.17;85.65;99791.47;5012041;28;20220;-82
2022/01/23 02:02:42;;;;;;;10.60;4.65;;;;;;;-3.37;84.83;99763.81;5004777;28;20246;-82
2022/01/23 02:15:40;;;;;;;12.85;5.82;;;;;;;-3.53;83.60;99720.88;4896326;29;20175;-83
2022/01/23 02:18:26;;;;;;;9.15;4.28;;;;;;;-2.87;83.98;99828.38;4896132;29;20225;-83
2022/01/23 02:50:57;;;;;;;9.57;4.50;;;;;;;-2.77;79.44;99797.97;5012871;28;20217;-82
2022/01/23 02:56:31;;;;;;;7.82;3.72;;;;;;;-2.60;78.21;99827.81;4933083;29;20272;-83
2022/01/23 02:58:59;;;;;;;15.40;5.72;;;;;;;-2.78;77.33;99771.47;4932883;29;20244;-83
2022/01/23 03:01:30;;;;;;;8.02;3.50;;;;;;;-2.50;77.41;99820.59;4933027;29;20189;-82
2022/01/23 03:04:03;;;;;;;9.65;5.55;;;;;;;-2.87;76.23;99753.22;4932448;29;20169;-81
2022/01/23 03:28:04;;;;;;;11.10;4.83;;;;;;;-2.82;78.11;99843.72;4857575;29;20216;-82
2022/01/23 03:30:36;;;;;;;9.60;4.70;;;;;;;-2.86;78.83;99859.88;4856913;29;20217;-82
2022/01/23 03:33:02;;;;;;;10.23;4.80;;;;;;;-2.99;79.47;99842.88;4884659;29;20196;-82
2022/01/23 03:35:27;;;;;;;10.37;5.30;;;;;;;-3.19;80.92;99844.03;4913190;29;20190;-82
2022/01/23 03:37:53;;;;;;;12.97;5.43;;;;;;;-3.57;81.19;99807.88;4913211;29;20170;-83
2022/01/23 03:40:19;;;;;;;12.47;5.80;;;;;;;-3.68;80.03;99735.03;4913350;29;20744;-83
2022/01/23 03:42:46;;;;;;;11.65;6.07;;;;;;;-5.14;78.84;99473.47;4913642;29;20560;-81
2022/01/23 03:50:47;;;;;;;12.40;6.57;;;;;;;-3.99;76.26;99622.94;4894803;29;20182;-83
2022/01/23 03:53:14;;;;;;;9.07;3.67;;;;;;;-3.27;76.78;99751.63;4897506;29;20730;-81
2022/01/23 03:55:40;;;;;;;12.57;5.95;;;;;;;-2.78;77.31;99861.53;4913504;29;20198;-82
2022/01/23 03:58:05;;;;;;;11.95;6.22;;;;;;;-3.35;78.16;99774.72;4913417;29;20181;-82
2022/01/23 04:00:32;;;;;;;12.77;6.67;;;;;;;-4.51;78.16;99579.63;4913144;29;20190;-82
2022/01/23 04:02:57;;;;;;;10.68;5.53;;;;;;;-5.14;78.31;99514.53;4913409;29;20595;-83
2022/01/23 04:05:23;;;;;;;12.87;6.80;;;;;;;-2.90;78.99;99864.34;4912999;29;20182;-81
2022/01/23 04:07:49;;;;;;;16.27;7.80;;;;;;;-2.97;79.08;99863.69;4913245;29;20291;-81
2022/01/23 04:10:17;;;;;;;14.20;7.30;;;;;;;-3.06;78.65;99857.81;4912980;29;20182;-81
2022/01/23 04:20:27;;;;;;;18.13;7.70;;;;;;;-2.95;78.77;99860.50;4913607;29;20194;-82
2022/01/23 05:00:53;;;;;;;8.18;4.72;;;;;;;-2.83;77.35;99867.59;4982567;28;20210;-82
2022/01/23 05:04:05;;;;;;;4.18;2.30;;;;;;;-3.62;76.17;99723.28;4973283;28;20165;-83
2022/01/23 05:06:25;;;;;;;12.25;5.35;;;;;;;-3.32;75.58;99761.78;4973932;28;20319;-83
2022/01/23 05:08:50;;;;;;;10.57;5.47;;;;;;;-2.63;74.98;99879.53;4973885;28;20241;-82
2022/01/23 05:11:16;;;;;;;14.77;6.90;;;;;;;-3.69;74.35;99686.31;4976224;28;20176;-82
2022/01/23 05:13:42;;;;;;;10.60;4.93;;;;;;;-3.05;74.11;99790.25;4995758;28;20194;-82
2022/01/23 05:16:08;;;;;;;12.57;6.17;;;;;;;-2.35;74.41;99931.19;5013155;28;20179;-82
2022/01/23 05:18:35;;;;;;;10.82;4.40;;;;;;;-4.98;74.51;99480.88;5014407;28;20438;-82
2022/01/23 05:21:17;;;;;;;8.50;4.75;;;;;;;-2.94;75.75;99857.34;5014481;28;20571;-83
2022/01/23 05:23:42;;;;;;;8.43;4.20;;;;;;;-3.55;76.73;99768.47;5014073;28;20177;-83
2022/01/23 05:26:08;;;;;;;6.73;3.60;;;;;;;-2.64;77.44;99945.59;5014197;28;20278;-83
2022/01/23 05:28:33;;;;;;;11.87;5.10;;;;;;;-4.14;78.76;99691.41;5014025;28;20165;-83
2022/01/23 05:30:59;;;;;;;16.27;5.30;;;;;;;-3.39;80.90;99863.34;5014431;28;20225;-82
2022/01/23 05:33:24;;;;;;;15.13;5.63;;;;;;;-4.33;81.70;99700.97;5014035;28;20169;-82
2022/01/23 05:35:49;;;;;;;7.83;4.67;;;;;;;-4.74;82.30;99640.53;5013876;28;20230;-82
2022/01/23 05:38:15;;;;;;;9.67;4.90;;;;;;;-4.58;82.93;99671.94;5013666;28;20639;-82
2022/01/23 05:40:42;;;;;;;7.23;3.27;;;;;;;-3.23;83.06;99907.19;5014009;28;20187;-82
2022/01/23 05:43:08;;;;;;;7.00;3.78;;;;;;;-4.01;82.75;99735.63;5013907;28;20614;-82
2022/01/23 05:45:34;;;;;;;8.00;3.70;;;;;;;-6.34;81.17;99298.78;5013880;28;20178;-83
2022/01/23 05:48:00;;;;;;;8.85;4.07;;;;;;;-4.27;78.94;99631.56;5013703;28;20235;-83
2022/01/23 05:50:25;;;;;;;10.57;4.23;;;;;;;-2.29;77.77;99941.72;5012798;28;20199;-82
2022/01/23 05:52:51;;;;;;;7.33;4.40;;;;;;;-4.19;76.95;99609.41;5013422;28;20171;-82
2022/01/23 05:55:16;;;;;;;7.47;4.07;;;;;;;-4.09;76.31;99617.78;5016260;28;20194;-81
2022/01/23 05:57:42;;;;;;;7.13;3.73;;;;;;;-2.43;74.34;99904.75;5097743;23;20237;-81
2022/01/23 06:00:08;;;;;;;9.40;4.10;;;;;;;-2.74;73.13;99820.59;5033077;28;20196;-82
2022/01/23 06:02:33;;;;;;;6.95;3.42;;;;;;;-2.41;73.58;99874.44;5032567;28;20173;-83
2022/01/23 06:04:59;;;;;;;11.07;5.53;;;;;;;-2.53;73.70;99884.72;5033447;28;20558;-84
2022/01/23 06:07:24;;;;;;;6.60;3.67;;;;;;;-2.16;74.32;99917.44;5034185;28;20340;-83
2022/01/23 06:09:50;;;;;;;8.13;3.83;;;;;;;-3.50;74.10;99688.16;5033417;28;20173;-83
2022/01/23 06:12:16;;;;;;;9.85;4.55;;;;;;;-3.82;74.92;99682.41;5033090;28;20162;-82
2022/01/23 06:14:41;;;;;;;8.83;4.70;;;;;;;-4.11;74.50;99575.59;5032873;28;20171;-83
2022/01/23 06:17:06;;;;;;;30.17;10.33;;;;;;;-3.57;74.17;99664.38;5033183;28;20563;-83
2022/01/23 06:19:34;;;;;;;33.10;10.00;;;;;;;-3.27;73.33;99716.13;5033359;28;20166;-82
2022/01/23 06:21:59;;;;;;;34.50;10.05;;;;;;;-3.49;73.72;99688.34;5032615;28;20166;-83
2022/01/23 06:24:26;;;;;;;36.40;10.40;;;;;;;-3.35;73.70;99717.81;5031105;28;20193;-83
2022/01/23 06:26:57;;;;;;;19.55;7.40;;;;;;;-2.47;74.02;99871.34;5032672;28;20716;-82
2022/01/23 06:29:24;;;;;;;13.38;5.38;;;;;;;-2.00;75.00;99964.50;5032562;28;20213;-83
2022/01/23 06:31:53;;;;;;;10.23;5.50;;;;;;;-2.09;76.47;99986.78;5032761;28;20173;-82
2022/01/23 06:34:19;;;;;;;10.35;4.75;;;;;;;-2.42;76.25;99909.00;5032687;28;20182;-83
2022/01/23 06:36:48;;;;;;;10.18;5.22;;;;;;;-1.90;74.54;99995.38;5032454;28;20555;-82
2022/01/23 06:39:14;;;;;;;10.15;4.57;;;;;;;-1.77;74.18;99989.13;5030818;28;20213;-83
2022/01/23 06:41:40;;;;;;;10.73;5.37;;;;;;;-1.85;72.98;99976.84;5032300;28;20162;-82
2022/01/23 06:44:06;;;;;;;10.75;4.82;;;;;;;-2.59;73.77;99857.72;5032281;28;20199;-83
2022/01/23 06:46:33;;;;;;;11.07;5.88;;;;;;;-1.70;73.21;99982.47;5032740;28;20281;-84
2022/01/23 06:48:58;;;;;;;13.85;5.82;;;;;;;-2.66;73.32;99828.06;5038184;28;20193;-83
2022/01/23 06:51:24;;;;;;;12.73;6.20;;;;;;;-3.09;73.29;99727.88;5032211;28;20162;-82
2022/01/23 06:53:49;;;;;;;13.20;5.93;;;;;;;-3.32;72.54;99683.47;5039673;28;20189;-83
2022/01/23 06:56:17;;;;;;;11.10;5.00;;;;;;;-4.50;71.77;99508.13;5038932;28;20169;-83
2022/01/23 06:58:42;;;;;;;12.68;6.90;;;;;;;-5.32;71.75;99376.91;5032431;28;20162;-83
2022/01/23 07:01:08;;;;;;;11.53;6.17;;;;;;;-3.43;71.23;99693.88;5033800;28;20257;-83
2022/01/23 07:03:34;;;;;;;18.33;7.57;;;;;;;-1.79;72.01;99986.53;5033422;28;20549;-82
2022/01/23 07:06:00;;;;;;;11.48;5.53;;;;;;;-4.85;71.36;99441.91;5034057;28;20174;-83
2022/01/23 07:08:25;;;;;;;10.50;5.40;;;;;;;-4.48;71.57;99506.72;5032279;28;20178;-82
2022/01/23 07:10:51;;;;;;;11.73;6.37;;;;;;;-2.63;71.19;99816.00;5032262;28;20638;-82
2022/01/23 07:13:16;;;;;;;13.17;6.43;;;;;;;-2.30;71.54;99880.47;5047493;28;20200;-82
2022/01/23 07:15:41;;;;;;;14.63;7.03;;;;;;;-5.60;70.54;99339.53;5031878;28;20174;-83
2022/01/23 07:18:08;;;;;;;11.07;5.82;;;;;;;-4.08;70.80;99566.00;5032472;28;20197;-84
2022/01/23 07:20:33;;;;;;;11.07;5.37;;;;;;;-2.37;71.21;99890.50;5032644;28;20173;-83
2022/01/23 07:22:59;;;;;;;12.33;5.73;;;;;;;-3.84;70.11;99617.06;5032095;28;20166;-83
2022/01/23 07:25:24;;;;;;;9.97;4.87;;;;;;;-3.95;70.63;99587.91;5032377;28;20193;-83
2022/01/23 07:27:54;;;;;;;12.60;6.00;;;;;;;-5.61;69.68;99305.75;5032597;28;20294;-83
2022/01/23 07:32:57;;;;;;;14.25;7.00;;;;;;;-2.39;70.35;99855.63;5032681;28;20166;-82
2022/01/23 07:35:22;;;;;;;10.00;5.23;;;;;;;-4.72;70.16;99453.94;5033902;28;20286;-82
2022/01/23 07:37:47;;;;;;;12.43;6.07;;;;;;;-1.50;69.42;99982.84;5033145;28;20257;-83
2022/01/23 07:40:13;;;;;;;54.67;15.43;;;;;;;-1.34;68.39;100005.09;5032146;28;20192;-81
2022/01/23 07:42:41;;;;;;;21.97;7.73;;;;;;;-2.94;68.18;99713.69;5035416;28;20177;-82
2022/01/23 07:45:07;;;;;;;23.00;8.48;;;;;;;-1.39;68.91;99978.94;5050767;28;20185;-84
2022/01/23 07:47:39;;;;;;;20.17;7.60;;;;;;;-1.67;68.43;99930.66;5032527;28;20209;-86
2022/01/23 07:50:07;;;;;;;28.63;9.40;;;;;;;-1.20;68.52;99980.91;5032690;28;20166;-82
2022/01/23 07:52:35;;;;;;;26.80;9.98;;;;;;;-1.20;68.24;99983.38;5031402;28;20166;-83
2022/01/23 07:55:04;;;;;;;44.58;15.05;;;;;;;-1.10;67.25;99980.22;5032052;28;20665;-83
2022/01/23 07:57:29;;;;;;;10.50;5.97;;;;;;;-0.92;66.37;99986.06;5032554;28;20251;-83
2022/01/23 07:59:55;;;;;;;16.73;7.00;;;;;;;-0.84;65.91;99990.16;5039686;28;20186;-85
2022/01/23 08:02:22;;;;;;;12.45;5.78;;;;;;;-3.00;65.50;99638.09;5038498;28;20683;-83
2022/01/23 08:04:48;;;;;;;14.90;7.53;;;;;;;-1.33;65.25;99893.53;5036297;28;20224;-83
2022/01/23 08:07:22;;;;;;;11.80;5.63;;;;;;;-2.59;64.34;99674.38;5033083;28;20190;-82
2022/01/23 08:09:48;;;;;;;14.25;7.10;;;;;;;-2.89;64.82;99603.59;5034567;28;20512;-83
2022/01/23 08:12:13;;;;;;;11.67;4.80;;;;;;;-2.34;64.55;99709.88;5036698;28;20204;-83
2022/01/23 08:14:39;;;;;;;10.23;5.53;;;;;;;-1.48;63.74;99859.75;5036242;28;20173;-82
2022/01/23 08:17:04;;;;;;;13.07;6.20;;;;;;;-2.68;63.29;99645.31;5035087;28;20586;-82
2022/01/23 08:19:30;;;;;;;10.57;5.43;;;;;;;-0.61;62.70;99936.09;5035738;28;20162;-81
2022/01/23 08:21:55;;;;;;;11.07;6.10;;;;;;;-2.83;62.12;99576.97;5035175;28;20543;-82
2022/01/23 08:24:21;;;;;;;21.20;8.53;;;;;;;-0.88;61.66;99824.13;5035270;28;20185;-82
2022/01/23 08:26:46;;;;;;;13.23;6.63;;;;;;;-0.22;59.76;99909.13;5034661;28;20190;-82
2022/01/23 08:29:11;;;;;;;25.37;9.27;;;;;;;-0.03;60.01;99982.25;5051522;28;20177;-84
2022/01/23 08:31:37;;;;;;;11.77;6.53;;;;;;;-1.11;60.60;99801.19;5035285;28;20243;-83
2022/01/23 08:34:02;;;;;;;14.20;7.00;;;;;;;-2.48;61.04;99556.47;5050918;28;20261;-83
2022/01/23 08:36:29;;;;;;;15.00;6.30;;;;;;;-1.66;60.28;99618.84;5034634;28;20176;-83
2022/01/23 08:38:55;;;;;;;10.55;5.15;;;;;;;-0.12;58.23;99827.13;5034915;28;20167;-84
2022/01/23 08:43:50;;;;;;;12.88;6.35;;;;;;;-0.42;56.22;99676.00;5035137;28;20213;-82
2022/01/23 08:46:17;;;;;;;42.00;15.48;;;;;;;0.90;54.63;99837.22;5050972;28;20169;-84
2022/01/23 08:48:43;;;;;;;24.58;8.75;;;;;;;0.83;55.01;99952.91;5035744;28;20257;-84
2022/01/23 08:51:10;;;;;;;23.17;11.43;;;;;;;-2.04;55.97;99454.94;5035580;28;20170;-82
2022/01/23 08:53:35;;;;;;;21.38;8.65;;;;;;;-1.16;55.55;99588.78;5050210;28;20220;-83
2022/01/23 08:56:01;;;;;;;19.80;9.03;;;;;;;-0.62;55.43;99696.56;5036817;28;20230;-81
2022/01/23 08:58:26;;;;;;;23.67;9.73;;;;;;;-1.76;54.93;99512.06;5035153;28;20213;-82
2022/01/23 09:00:52;;;;;;;10.40;5.63;;;;;;;-0.75;53.79;99673.81;5035959;28;20198;-82
2022/01/23 09:03:17;;;;;;;20.73;8.33;;;;;;;0.75;53.85;99879.09;5067632;28;20194;-82
2022/01/23 09:05:43;;;;;;;10.83;5.20;;;;;;;-0.37;53.57;99753.50;5067030;28;20181;-81
2022/01/23 09:08:11;;;;;;;9.00;4.67;;;;;;;-0.96;54.20;99691.72;5041286;28;20205;-84
2022/01/23 09:10:53;;;;;;;18.02;7.97;;;;;;;0.36;54.21;99891.31;5033701;28;20638;-83
2022/01/23 09:15:53;;;;;;;7.53;3.97;;;;;;;0.92;54.71;99945.38;5034335;28;20185;-82
2022/01/23 09:18:18;;;;;;;8.87;4.90;;;;;;;0.85;54.21;99953.06;5033851;28;20182;-82
2022/01/23 09:20:43;;;;;;;17.17;8.47;;;;;;;0.05;54.52;99809.66;5033970;28;20881;-81
2022/01/23 09:23:09;;;;;;;8.40;4.20;;;;;;;-0.27;54.03;99738.66;5033427;28;21136;-81
2022/01/23 09:25:34;;;;;;;12.53;5.77;;;;;;;-0.65;52.87;99681.38;5034030;28;20253;-82
2022/01/23 09:28:03;;;;;;;14.53;7.20;;;;;;;0.74;52.29;99839.97;5034965;28;20201;-82
2022/01/23 09:30:35;;;;;;;17.73;8.33;;;;;;;1.60;51.31;99922.38;5035806;28;20182;-81
2022/01/23 09:33:00;;;;;;;9.87;5.17;;;;;;;-0.42;52.33;99641.19;5035236;28;20445;-81
2022/01/23 09:35:26;;;;;;;22.93;10.27;;;;;;;-1.12;52.93;99549.47;5034422;28;20417;-83
2022/01/23 09:37:51;;;;;;;13.53;5.80;;;;;;;0.74;50.55;99821.66;5034955;28;20170;-82
2022/01/23 09:40:17;;;;;;;20.97;8.70;;;;;;;0.23;51.16;99741.59;5035779;28;20544;-83
2022/01/23 09:42:49;;;;;;;6.90;4.30;;;;;;;0.39;51.06;99792.00;5035382;28;20166;-83
2022/01/23 09:45:15;;;;;;;16.03;6.43;;;;;;;1.67;50.14;99917.19;5050783;28;20174;-83
2022/01/23 09:47:41;;;;;;;43.30;17.63;;;;;;;2.17;49.47;99925.63;5037157;28;20464;-83
2022/01/23 09:50:09;;;;;;;20.60;8.07;;;;;;;-0.36;49.70;99537.31;5038515;28;20257;-82
2022/01/23 09:52:37;;;;;;;25.97;9.67;;;;;;;0.71;49.30;99664.44;5037292;28;20412;-82
2022/01/23 09:55:10;;;;;;;18.87;7.60;;;;;;;1.45;49.08;99786.38;5035921;28;20413;-82
2022/01/23 09:57:44;;;;;;;26.10;9.67;;;;;;;1.52;48.54;99741.25;5041640;28;20457;-83
2022/01/23 10:00:16;;;;;;;10.00;4.90;;;;;;;1.29;49.46;99879.69;5026991;28;20594;-83
2022/01/23 10:02:43;;;;;;;10.33;4.47;;;;;;;0.54;49.58;99787.50;5030995;28;20457;-83
2022/01/23 10:05:09;;;;;;;8.63;4.50;;;;;;;0.85;49.55;99831.81;5017659;28;20432;-82
2022/01/23 10:07:40;;;;;;;19.23;8.00;;;;;;;0.74;49.18;99744.44;5034643;28;20457;-82
2022/01/23 10:10:20;;;;;;;11.37;5.27;;;;;;;1.04;48.98;99874.19;5039024;28;20170;-81
2022/01/23 10:12:50;;;;;;;14.77;7.07;;;;;;;1.13;48.63;99887.44;5031949;28;21443;-82
2022/01/23 10:15:18;;;;;;;12.83;6.47;;;;;;;0.95;48.43;99813.56;5040403;28;21003;-82
2022/01/23 10:17:44;;;;;;;12.13;6.57;;;;;;;0.58;48.84;99685.78;5033134;28;20454;-82
2022/01/23 10:20:11;;;;;;;10.13;5.53;;;;;;;0.41;49.42;99636.13;5023269;28;20424;-83
2022/01/23 10:22:40;;;;;;;14.57;6.83;;;;;;;1.69;49.52;99863.31;5057884;28;20420;-81
2022/01/23 10:25:20;;;;;;;32.53;10.60;;;;;;;0.43;49.54;99603.91;5041486;28;20401;-81
2022/01/23 10:27:59;;;;;;;17.13;9.07;;;;;;;2.11;48.29;99870.16;5044882;28;20517;-82
2022/01/23 10:30:26;;;;;;;24.33;11.67;;;;;;;2.52;47.31;99873.59;5048809;28;20385;-83
2022/01/23 10:33:19;;;;;;;15.73;7.70;;;;;;;2.29;46.91;99867.56;5068576;22;20458;-85
2022/01/23 10:36:07;;;;;;;13.80;6.77;;;;;;;2.03;47.64;99857.03;4971431;28;20549;-83
2022/01/23 10:38:39;;;;;;;12.73;7.20;;;;;;;0.16;48.88;99618.97;4964211;28;20419;-82
2022/01/23 10:49:56;;;;;;;41.20;19.40;;;;;;;1.78;47.94;99866.59;4980009;28;21330;-84
2022/01/23 10:52:26;;;;;;;33.47;16.53;;;;;;;1.31;48.10;99736.94;4961885;28;20848;-83
2022/01/23 10:54:51;;;;;;;44.50;16.13;;;;;;;2.35;46.98;99859.69;4990403;28;20891;-83
2022/01/23 10:57:17;;;;;;;38.40;15.70;;;;;;;1.89;46.16;99746.78;4996294;28;20442;-83
2022/01/23 10:59:46;;;;;;;36.87;16.67;;;;;;;1.17;46.98;99597.78;4960903;28;20188;-84
2022/01/23 11:02:21;;;;;;;24.87;10.40;;;;;;;0.28;47.74;99578.56;4961100;28;20180;-82
2022/01/23 11:04:55;;;;;;;19.33;8.20;;;;;;;1.31;47.95;99778.47;4976450;28;20931;-82
2022/01/23 11:07:22;;;;;;;22.23;9.97;;;;;;;0.81;48.39;99704.34;4962502;28;20545;-83
2022/01/23 11:09:54;;;;;;;25.57;12.00;;;;;;;-2.69;48.56;99118.44;4960439;28;21111;-82
2022/01/23 11:18:04;;;;;;;23.50;10.57;;;;;;;0.52;47.97;99610.53;4995157;28;20437;-83
2022/01/23 11:20:30;;;;;;;31.07;14.87;;;;;;;1.98;48.58;99842.44;4992014;28;20431;-84
2022/01/23 11:23:11;;;;;;;24.33;12.43;;;;;;;1.74;48.77;99843.72;4995896;28;20426;-81
2022/01/23 11:25:38;;;;;;;20.93;9.77;;;;;;;1.18;48.69;99789.03;4979916;28;20258;-82
2022/01/23 11:28:05;;;;;;;38.30;17.77;;;;;;;0.50;49.21;99631.97;4995340;28;20470;-83
2022/01/23 11:30:40;;;;;;;33.67;12.57;;;;;;;1.16;49.53;99700.72;4982598;28;20419;-83
2022/01/23 11:33:08;;;;;;;32.40;13.87;;;;;;;1.97;49.75;99841.53;4996740;28;20473;-83
2022/01/23 11:35:33;;;;;;;20.67;9.43;;;;;;;0.99;49.98;99729.22;4979695;28;20647;-84
2022/01/23 11:37:59;;;;;;;25.37;11.87;;;;;;;0.60;49.66;99671.84;4996211;28;20505;-83
2022/01/23 11:53:56;;;;;;;18.53;8.80;;;;;;;0.51;50.02;99707.53;5007438;28;20454;-83
2022/01/23 11:56:24;;;;;;;12.20;6.27;;;;;;;1.12;50.36;99819.28;5022824;28;20418;-83
2022/01/23 11:59:24;;;;;;;33.57;14.17;;;;;;;1.14;51.11;99835.22;5023433;28;20445;-83
2022/01/23 12:02:11;;;;;;;21.80;10.53;;;;;;;1.03;51.36;99840.91;5022545;28;20405;-82
2022/01/23 12:04:39;;;;;;;20.33;8.47;;;;;;;1.04;51.52;99834.31;5022435;28;20408;-83
2022/01/23 12:07:11;;;;;;;32.93;14.73;;;;;;;1.20;52.00;99844.88;5021271;28;20555;-83
2022/01/23 12:09:38;;;;;;;37.40;15.37;;;;;;;0.69;52.31;99745.66;5022837;28;20402;-82
2022/01/23 12:12:09;;;;;;;32.87;15.70;;;;;;;0.89;51.62;99791.47;5022946;28;20410;-83
2022/01/23 12:17:20;;;;;;;20.90;8.73;;;;;;;1.08;52.06;99854.63;5021259;28;20512;-83
2022/01/23 12:19:50;;;;;;;15.10;8.33;;;;;;;-0.96;52.58;99566.66;5022331;28;20459;-81
2022/01/23 12:22:33;;;;;;;31.73;13.60;;;;;;;1.05;52.48;99843.50;5023963;28;20416;-82
2022/01/23 12:25:13;;;;;;;42.73;15.93;;;;;;;0.92;52.71;99838.22;5028813;28;20158;-81
2022/01/23 12:27:39;;;;;;;32.03;11.03;;;;;;;0.06;52.93;99719.31;5018516;28;20465;-82
2022/01/23 12:30:22;;;;;;;37.90;13.37;;;;;;;0.96;52.56;99843.59;5020774;28;20417;-83
2022/01/23 12:33:17;;;;;;;38.38;16.70;;;;;;;0.18;52.41;99747.78;5024082;28;20174;-83
2022/01/23 12:35:46;;;;;;;36.92;13.45;;;;;;;0.98;52.66;99843.75;5059878;28;20166;-83
2022/01/23 12:38:13;;;;;;;49.43;17.20;;;;;;;-0.37;52.52;99604.28;5041809;28;20173;-83
2022/01/23 12:40:46;;;;;;;68.40;25.65;;;;;;;0.32;52.86;99670.22;5058373;28;20940;-84
2022/01/23 12:43:26;;;;;;;44.67;19.10;;;;;;;-2.28;53.41;99228.69;5056958;28;20169;-83
2022/01/23 12:46:01;;;;;;;27.10;10.40;;;;;;;0.90;52.27;99780.78;5057597;28;20416;-83
2022/01/23 12:48:26;;;;;;;23.70;11.43;;;;;;;1.29;52.08;99838.19;5078636;28;20221;-81
2022/01/23 12:51:04;;;;;;;20.43;10.03;;;;;;;-0.59;51.49;99504.56;5047833;28;20444;-82
2022/01/23 12:53:47;;;;;;;20.07;10.37;;;;;;;1.07;51.51;99829.59;5056116;28;20177;-86
2022/01/23 12:56:14;;;;;;;23.35;11.52;;;;;;;1.11;51.38;99827.50;5054099;28;20419;-83
2022/01/23 12:59:10;;;;;;;26.37;11.90;;;;;;;-0.65;51.67;99526.41;5055583;28;20170;-83
2022/01/23 13:01:39;;;;;;;25.90;13.47;;;;;;;1.30;51.55;99831.56;5056353;28;20465;-82
2022/01/23 13:04:06;;;;;;;13.73;6.97;;;;;;;0.39;52.47;99712.31;5057563;28;20408;-83
2022/01/23 13:06:34;;;;;;;20.40;9.37;;;;;;;0.93;52.57;99790.13;5056871;28;20233;-82
2022/01/23 13:09:22;;;;;;;17.90;8.10;;;;;;;1.10;52.19;99824.84;5037928;28;20417;-82
2022/01/23 13:12:02;;;;;;;22.47;10.80;;;;;;;0.93;52.31;99815.06;5037769;28;20412;-83
2022/01/23 13:14:39;;;;;;;24.60;10.95;;;;;;;-0.60;52.12;99565.84;5055853;28;20396;-83
2022/01/23 13:30:49;;;;;;;38.92;15.60;;;;;;;0.95;53.01;99840.97;5058315;28;20443;-82
2022/01/23 13:33:20;;;;;;;32.53;14.35;;;;;;;0.17;52.05;99685.41;5040280;28;20282;-83
2022/01/23 13:35:50;;;;;;;15.13;6.70;;;;;;;0.49;52.07;99719.88;5056569;28;20193;-83
2022/01/23 13:38:17;;;;;;;31.13;13.95;;;;;;;0.64;52.90;99777.59;5055592;28;20162;-82
2022/01/23 13:40:43;;;;;;;19.13;8.32;;;;;;;-0.24;53.09;99667.69;5057684;28;20625;-82
2022/01/23 14:02:27;;;;;;;23.77;9.18;;;;;;;0.75;53.79;99848.31;5055740;28;20184;-83
2022/01/23 14:05:03;;;;;;;34.17;12.95;;;;;;;0.20;53.92;99741.31;5054177;28;20165;-82
2022/01/23 14:07:29;;;;;;;33.10;11.93;;;;;;;0.16;54.39;99739.31;5053780;28;20220;-83
2022/01/23 14:09:58;;;;;;;18.15;7.15;;;;;;;0.77;54.17;99860.16;5053684;28;20170;-83
2022/01/23 14:12:25;;;;;;;37.00;16.85;;;;;;;-0.04;54.50;99716.75;5054165;28;20169;-83
2022/01/23 14:14:57;;;;;;;48.38;21.35;;;;;;;-2.24;54.77;99370.41;5053797;28;20246;-83
2022/01/23 14:17:25;;;;;;;39.38;16.65;;;;;;;0.80;54.62;99862.03;5053951;28;20169;-82
2022/01/23 14:20:07;;;;;;;37.58;17.58;;;;;;;-0.57;54.64;99624.00;5053329;28;20249;-83
2022/01/23 14:22:39;;;;;;;25.95;12.75;;;;;;;0.87;53.65;99869.34;5053629;28;20555;-82
2022/01/23 14:25:08;;;;;;;18.95;9.63;;;;;;;0.72;54.38;99853.91;5057138;28;20192;-82
2022/01/23 14:27:33;;;;;;;21.73;11.30;;;;;;;0.56;54.60;99863.22;5054762;28;20207;-83
2022/01/23 14:30:10;;;;;;;33.33;11.93;;;;;;;-2.54;54.51;99337.81;5035575;28;20248;-83
2022/01/23 14:32:53;;;;;;;33.83;13.60;;;;;;;-1.85;54.62;99477.34;5035731;28;20180;-81
2022/01/23 14:35:29;;;;;;;14.13;7.50;;;;;;;0.49;54.90;99853.47;5039835;28;20351;-83
2022/01/23 14:38:11;;;;;;;21.05;10.55;;;;;;;0.70;55.05;99861.97;5034966;28;20177;-83
2022/01/23 14:40:38;;;;;;;33.88;14.43;;;;;;;0.23;55.14;99803.81;5017338;28;20182;-82
2022/01/23 14:43:06;;;;;;;72.32;25.48;;;;;;;0.69;55.39;99856.09;5050462;28;20165;-83
2022/01/23 14:45:38;;;;;;;50.60;19.45;;;;;;;-0.75;55.39;99658.91;5055700;28;20197;-83
2022/01/23 14:48:05;;;;;;;30.95;14.25;;;;;;;0.44;56.41;99865.50;5025752;28;20209;-82
2022/01/23 14:50:33;;;;;;;15.13;5.82;;;;;;;-0.12;56.09;99769.91;5046291;28;20169;-84
2022/01/23 14:53:08;;;;;;;13.90;8.00;;;;;;;-0.17;56.37;99778.59;5025163;28;20174;-81
2022/01/23 14:55:34;;;;;;;14.90;7.63;;;;;;;0.30;56.65;99872.47;5053766;28;20177;-81
2022/01/23 14:58:01;;;;;;;14.93;7.50;;;;;;;-1.84;56.72;99513.84;5042350;28;20170;-83
2022/01/23 15:00:32;;;;;;;12.57;6.57;;;;;;;-1.88;57.64;99515.16;5033816;28;20162;-83
2022/01/23 15:03:01;;;;;;;32.47;14.30;;;;;;;0.34;57.84;99890.31;5034889;28;20273;-83
2022/01/23 15:05:30;;;;;;;16.10;7.90;;;;;;;-1.45;57.33;99578.66;5039767;28;20166;-83
2022/01/23 15:07:56;;;;;;;15.00;7.82;;;;;;;-2.24;57.38;99459.63;5054529;28;20273;-84
2022/01/23 15:10:22;;;;;;;20.35;10.02;;;;;;;-2.02;57.43;99497.22;5040363;28;20181;-82
2022/01/23 15:12:47;;;;;;;19.40;9.80;;;;;;;-0.90;57.66;99684.84;5033336;28;20204;-83
2022/01/23 15:15:13;;;;;;;19.77;9.53;;;;;;;-1.17;58.26;99651.59;5016802;28;20181;-82
2022/01/23 15:17:39;;;;;;;25.13;10.80;;;;;;;-2.49;58.25;99445.66;5035151;28;20227;-83